Time;durP1;ratioP1;P1;durP2;ratioP2;P2;SDS_P1;SDS_P2;PMS_P1;PMS_P2;Temp;Humidity;BMP_temperature;BMP_pressure;BME280_temperature;BME280_humidity;BME280_pressure;Samples;Min_cycle;Max_cycle;Signal;HPM_P1;HPM_P2
2023/03/02 00:00:17;;;;;;;9.40;7.87;;;3.50;57.60;;;;;;941857;149;27332;-78
2023/03/02 00:02:43;;;;;;;10.73;8.13;;;3.50;57.70;;;;;;939818;148;27742;-78
2023/03/02 00:05:13;;;;;;;9.33;7.47;;;3.50;57.80;;;;;;942453;149;27383;-78
2023/03/02 00:07:36;;;;;;;10.53;8.13;;;3.40;57.80;;;;;;939898;149;27317;-77
2023/03/02 00:10:03;;;;;;;9.20;6.97;;;3.40;57.70;;;;;;939274;149;27342;-78
2023/03/02 00:12:29;;;;;;;10.83;7.90;;;3.40;57.80;;;;;;940435;148;27365;-78
2023/03/02 00:14:56;;;;;;;10.13;7.73;;;3.40;57.80;;;;;;940142;151;27356;-78
2023/03/02 00:17:26;;;;;;;8.63;6.90;;;3.40;57.80;;;;;;939752;149;27298;-78
2023/03/02 00:19:49;;;;;;;9.87;7.30;;;3.40;57.80;;;;;;944144;147;27671;-78
2023/03/02 00:22:17;;;;;;;8.90;7.30;;;3.50;57.90;;;;;;937005;148;27490;-78
2023/03/02 00:24:42;;;;;;;8.70;6.57;;;3.40;58.00;;;;;;934705;153;27467;-78
2023/03/02 00:27:09;;;;;;;8.67;7.13;;;3.40;57.90;;;;;;932574;153;28023;-78
2023/03/02 00:29:36;;;;;;;10.00;7.27;;;3.40;57.90;;;;;;933303;153;27302;-78
2023/03/02 00:32:02;;;;;;;9.77;7.67;;;3.40;57.90;;;;;;928286;151;27302;-78
2023/03/02 00:34:31;;;;;;;8.50;6.90;;;3.40;57.90;;;;;;933374;152;27396;-78
2023/03/02 00:36:55;;;;;;;8.43;6.57;;;3.40;58.00;;;;;;933765;153;27435;-77
2023/03/02 00:39:22;;;;;;;7.50;6.63;;;3.40;58.10;;;;;;933688;151;27295;-77
2023/03/02 00:41:48;;;;;;;8.57;7.10;;;3.40;58.10;;;;;;933284;153;27331;-77
2023/03/02 00:44:18;;;;;;;10.80;7.93;;;3.40;58.20;;;;;;932733;151;27262;-78
2023/03/02 00:46:42;;;;;;;9.27;7.23;;;3.40;58.10;;;;;;933810;153;27394;-78
2023/03/02 00:49:08;;;;;;;7.67;6.87;;;3.40;58.30;;;;;;932673;153;27448;-78
2023/03/02 00:51:35;;;;;;;7.80;7.00;;;3.30;58.20;;;;;;932921;151;27830;-78
2023/03/02 00:54:01;;;;;;;7.67;6.43;;;3.30;58.30;;;;;;933802;153;27374;-78
2023/03/02 00:56:28;;;;;;;10.43;7.50;;;3.30;58.10;;;;;;931608;151;27361;-78
2023/03/02 00:58:55;;;;;;;10.03;7.27;;;3.30;58.10;;;;;;932761;151;27370;-78
2023/03/02 01:01:21;;;;;;;8.73;7.37;;;3.30;58.20;;;;;;933289;151;27302;-78
2023/03/02 01:03:48;;;;;;;9.60;7.30;;;3.20;58.10;;;;;;932529;151;27297;-78
2023/03/02 01:06:14;;;;;;;9.10;7.17;;;3.20;58.30;;;;;;934549;152;27260;-78
2023/03/02 01:08:41;;;;;;;8.33;7.47;;;3.20;58.30;;;;;;934321;151;27369;-78
2023/03/02 01:11:16;;;;;;;8.07;6.57;;;3.20;58.30;;;;;;934136;150;27306;-78
2023/03/02 01:13:43;;;;;;;9.13;7.30;;;3.20;58.40;;;;;;932043;152;27331;-77
2023/03/02 01:16:10;;;;;;;10.50;7.43;;;3.20;58.50;;;;;;934572;152;27301;-77
2023/03/02 01:18:37;;;;;;;8.63;7.53;;;3.20;58.50;;;;;;932665;151;27390;-77
2023/03/02 01:21:03;;;;;;;7.80;6.63;;;3.10;58.50;;;;;;933002;150;28553;-78
2023/03/02 01:23:29;;;;;;;8.10;6.60;;;3.10;58.60;;;;;;936116;149;27688;-77
2023/03/02 01:25:56;;;;;;;10.70;7.47;;;3.10;58.40;;;;;;941919;149;27302;-77
2023/03/02 01:28:22;;;;;;;7.73;6.70;;;3.10;58.40;;;;;;941188;149;27378;-77
2023/03/02 01:30:49;;;;;;;11.27;6.83;;;3.10;58.60;;;;;;939603;149;27385;-77
2023/03/02 01:33:16;;;;;;;10.07;7.80;;;3.10;58.60;;;;;;937564;148;27350;-77
2023/03/02 01:35:42;;;;;;;11.80;8.00;;;3.10;58.60;;;;;;928273;150;27413;-77
2023/03/02 01:38:09;;;;;;;8.00;6.47;;;3.10;58.70;;;;;;941796;147;27395;-78
2023/03/02 01:40:35;;;;;;;9.63;7.17;;;3.10;58.80;;;;;;928406;149;27366;-78
2023/03/02 01:43:03;;;;;;;10.03;7.20;;;3.10;58.70;;;;;;939190;149;27399;-78
2023/03/02 01:45:44;;;;;;;10.70;7.50;;;3.10;58.70;;;;;;939848;148;27262;-78
2023/03/02 01:48:10;;;;;;;8.90;7.43;;;3.10;58.70;;;;;;941311;149;27282;-77
2023/03/02 01:50:37;;;;;;;8.43;6.47;;;3.10;58.60;;;;;;942395;149;27448;-77
2023/03/02 01:53:03;;;;;;;8.43;6.83;;;3.10;58.70;;;;;;938205;149;27438;-77
2023/03/02 01:55:30;;;;;;;9.03;6.87;;;3.10;58.70;;;;;;941209;148;27341;-77
2023/03/02 01:57:56;;;;;;;7.80;6.83;;;3.10;58.70;;;;;;938924;148;27433;-77
2023/03/02 02:00:23;;;;;;;10.87;7.20;;;3.10;58.80;;;;;;940275;149;27349;-77
2023/03/02 02:02:50;;;;;;;8.30;7.03;;;3.10;58.80;;;;;;938646;148;27452;-77
2023/03/02 02:05:19;;;;;;;9.30;6.70;;;3.00;58.80;;;;;;941670;149;27385;-77
2023/03/02 02:07:46;;;;;;;8.43;6.87;;;3.00;58.80;;;;;;940545;148;27352;-78
2023/03/02 02:10:13;;;;;;;8.10;6.47;;;3.00;59.00;;;;;;941383;149;28078;-77
2023/03/02 02:12:39;;;;;;;9.57;7.00;;;3.00;59.00;;;;;;930204;149;27427;-77
2023/03/02 02:15:06;;;;;;;8.17;6.63;;;3.00;59.00;;;;;;943065;147;27258;-77
2023/03/02 02:17:32;;;;;;;8.37;6.83;;;2.90;59.10;;;;;;943259;147;27409;-77
2023/03/02 02:20:06;;;;;;;11.00;7.83;;;2.90;59.10;;;;;;943772;147;27284;-77
2023/03/02 02:22:37;;;;;;;8.90;6.77;;;2.80;59.20;;;;;;944032;147;27419;-77
2023/03/02 02:25:04;;;;;;;8.87;6.93;;;2.80;59.20;;;;;;937630;149;27858;-77
2023/03/02 02:27:32;;;;;;;9.30;6.90;;;2.80;59.20;;;;;;931189;150;27841;-77
2023/03/02 02:29:57;;;;;;;10.20;7.57;;;2.70;59.20;;;;;;935676;150;27368;-77
2023/03/02 02:32:29;;;;;;;9.70;7.27;;;2.70;59.30;;;;;;932869;151;27379;-77
2023/03/02 02:35:05;;;;;;;10.50;7.20;;;2.70;59.40;;;;;;933417;152;27421;-77
2023/03/02 02:37:31;;;;;;;9.10;6.47;;;2.70;59.40;;;;;;932614;151;27448;-77
2023/03/02 02:39:58;;;;;;;8.53;6.70;;;2.60;59.40;;;;;;932135;152;27303;-77
2023/03/02 02:42:27;;;;;;;8.67;6.63;;;2.60;59.50;;;;;;935842;151;27344;-77
2023/03/02 02:44:54;;;;;;;9.03;6.73;;;2.60;59.60;;;;;;933549;152;27378;-77
2023/03/02 02:47:20;;;;;;;8.23;6.63;;;2.60;59.60;;;;;;933418;151;27342;-77
2023/03/02 02:49:47;;;;;;;8.83;7.20;;;2.60;59.70;;;;;;932817;152;27764;-77
2023/03/02 02:52:14;;;;;;;8.83;6.53;;;2.60;59.90;;;;;;932834;152;27451;-77
2023/03/02 02:54:40;;;;;;;7.73;6.80;;;2.50;59.90;;;;;;935218;152;27359;-77
2023/03/02 02:57:07;;;;;;;10.10;7.17;;;2.60;59.90;;;;;;934283;152;27294;-77
2023/03/02 02:59:36;;;;;;;9.23;7.00;;;2.60;59.90;;;;;;934840;152;27412;-77
2023/03/02 03:02:03;;;;;;;8.53;7.07;;;2.60;60.00;;;;;;934135;150;27399;-77
2023/03/02 03:04:29;;;;;;;8.40;6.37;;;2.50;60.00;;;;;;933736;152;27441;-77
2023/03/02 03:06:56;;;;;;;9.47;7.17;;;2.50;60.00;;;;;;933540;152;27423;-77
2023/03/02 03:09:22;;;;;;;9.60;6.77;;;2.50;60.00;;;;;;932006;151;27307;-77
2023/03/02 03:11:49;;;;;;;8.03;6.67;;;2.50;60.00;;;;;;932185;150;27295;-77
2023/03/02 03:14:15;;;;;;;8.87;7.20;;;2.40;60.00;;;;;;924070;152;28312;-77
2023/03/02 03:16:42;;;;;;;8.57;7.07;;;2.40;60.00;;;;;;934457;151;27441;-77
2023/03/02 03:19:17;;;;;;;9.77;6.90;;;2.40;60.20;;;;;;933241;150;27449;-77
2023/03/02 03:21:44;;;;;;;8.90;6.70;;;2.40;60.30;;;;;;933337;150;27423;-77
2023/03/02 03:24:11;;;;;;;10.63;7.20;;;2.40;60.30;;;;;;935521;151;27456;-76
2023/03/02 03:26:37;;;;;;;10.77;7.30;;;2.40;60.50;;;;;;941394;148;27442;-77
2023/03/02 03:29:04;;;;;;;8.77;7.10;;;2.40;60.40;;;;;;939504;149;27310;-77
2023/03/02 03:31:30;;;;;;;8.63;7.03;;;2.30;60.50;;;;;;927373;150;27401;-77
2023/03/02 03:33:59;;;;;;;11.90;7.37;;;2.30;60.40;;;;;;938169;149;27422;-77
2023/03/02 03:36:24;;;;;;;9.57;7.03;;;2.30;60.50;;;;;;940967;149;27365;-77
2023/03/02 03:38:50;;;;;;;8.07;6.90;;;2.30;60.50;;;;;;938473;149;27295;-77
2023/03/02 03:41:17;;;;;;;8.67;7.03;;;2.30;60.70;;;;;;939922;148;27330;-77
2023/03/02 03:43:43;;;;;;;9.03;7.10;;;2.30;60.90;;;;;;928268;149;27309;-77
2023/03/02 03:46:10;;;;;;;10.03;7.10;;;2.20;60.80;;;;;;943596;147;27405;-77
2023/03/02 03:48:37;;;;;;;10.27;7.67;;;2.20;60.90;;;;;;945043;145;27794;-76
2023/03/02 03:51:03;;;;;;;9.93;7.37;;;2.20;61.00;;;;;;926611;150;27345;-76
2023/03/02 03:53:30;;;;;;;9.70;7.20;;;2.20;60.90;;;;;;944012;147;27279;-75
2023/03/02 03:55:56;;;;;;;9.27;7.63;;;2.20;61.10;;;;;;937913;149;27294;-76
2023/03/02 03:58:25;;;;;;;9.83;7.00;;;2.20;61.10;;;;;;941869;149;27360;-76
2023/03/02 04:00:52;;;;;;;9.60;7.47;;;2.20;61.10;;;;;;940764;148;27418;-76
2023/03/02 04:03:19;;;;;;;9.07;6.93;;;2.20;61.00;;;;;;940585;149;27419;-76
2023/03/02 04:05:45;;;;;;;8.67;7.00;;;2.20;61.00;;;;;;940538;149;27286;-78
2023/03/02 04:08:12;;;;;;;12.03;7.47;;;2.20;61.10;;;;;;940016;149;27382;-76
2023/03/02 04:10:38;;;;;;;7.93;6.50;;;2.20;61.10;;;;;;938866;148;27302;-76
2023/03/02 04:13:05;;;;;;;10.07;7.43;;;2.20;61.30;;;;;;938823;149;27396;-76
2023/03/02 04:15:32;;;;;;;10.37;7.73;;;2.20;61.10;;;;;;927663;149;27286;-76
2023/03/02 04:17:58;;;;;;;8.23;6.83;;;2.20;61.30;;;;;;944824;147;27458;-77
2023/03/02 04:20:25;;;;;;;10.63;7.87;;;2.20;61.30;;;;;;941083;147;27330;-76
2023/03/02 04:22:51;;;;;;;8.83;7.00;;;2.20;61.20;;;;;;939213;149;27399;-76
2023/03/02 04:25:21;;;;;;;8.40;6.93;;;2.20;61.30;;;;;;938245;149;27406;-77
2023/03/02 04:27:47;;;;;;;9.67;7.33;;;2.20;61.30;;;;;;939676;149;27350;-77
2023/03/02 04:30:14;;;;;;;9.83;7.27;;;2.20;61.40;;;;;;940679;149;27357;-76
2023/03/02 04:32:42;;;;;;;8.93;7.57;;;2.20;61.40;;;;;;932709;149;27289;-76
2023/03/02 04:35:07;;;;;;;9.03;7.17;;;2.20;61.40;;;;;;938536;149;27821;-76
2023/03/02 04:37:34;;;;;;;8.70;6.73;;;2.20;61.30;;;;;;939684;149;27322;-77
2023/03/02 04:40:00;;;;;;;8.83;7.10;;;2.20;61.40;;;;;;938564;149;27459;-77
2023/03/02 04:42:27;;;;;;;8.73;7.17;;;2.20;61.30;;;;;;941409;149;27327;-76
2023/03/02 04:44:53;;;;;;;12.13;7.87;;;2.20;61.50;;;;;;939079;149;27319;-76
2023/03/02 04:47:20;;;;;;;7.63;6.40;;;2.20;61.60;;;;;;940356;149;27269;-77
2023/03/02 04:49:49;;;;;;;9.43;6.67;;;2.30;61.70;;;;;;939886;148;27365;-77
2023/03/02 04:52:13;;;;;;;9.40;7.70;;;2.20;61.60;;;;;;939919;149;27369;-76
2023/03/02 04:54:40;;;;;;;8.80;6.47;;;2.30;61.70;;;;;;940248;151;27354;-76
2023/03/02 04:57:07;;;;;;;10.40;7.03;;;2.20;61.70;;;;;;939485;149;27366;-76
2023/03/02 04:59:33;;;;;;;10.83;7.13;;;2.30;61.70;;;;;;941458;150;27306;-77
2023/03/02 05:02:00;;;;;;;9.30;7.23;;;2.20;61.70;;;;;;928826;149;27443;-76
2023/03/02 05:04:26;;;;;;;9.40;7.40;;;2.20;61.70;;;;;;939569;151;28419;-76
2023/03/02 05:06:53;;;;;;;9.70;7.17;;;2.20;61.60;;;;;;940819;149;27302;-76
2023/03/02 05:09:20;;;;;;;11.37;7.97;;;2.20;61.70;;;;;;939793;149;27322;-76
2023/03/02 05:11:46;;;;;;;12.40;7.10;;;2.20;61.90;;;;;;937577;148;27487;-78
2023/03/02 05:14:12;;;;;;;10.10;7.37;;;2.20;61.90;;;;;;925996;149;27349;-76
2023/03/02 05:16:39;;;;;;;12.03;7.33;;;2.20;61.90;;;;;;939678;151;27971;-76
2023/03/02 05:19:06;;;;;;;10.70;7.40;;;2.20;61.90;;;;;;927386;149;27428;-76
2023/03/02 05:21:32;;;;;;;10.90;7.77;;;2.20;61.90;;;;;;939332;149;27400;-77
2023/03/02 05:23:59;;;;;;;7.80;6.50;;;2.20;62.10;;;;;;940130;148;27365;-76
2023/03/02 05:26:25;;;;;;;8.30;7.03;;;2.10;61.90;;;;;;940431;151;27489;-76
2023/03/02 05:28:52;;;;;;;12.50;7.90;;;2.10;62.00;;;;;;928950;149;27305;-76
2023/03/02 05:31:19;;;;;;;10.60;7.23;;;2.10;62.80;;;;;;940345;149;27258;-77
2023/03/02 05:33:45;;;;;;;10.93;7.23;;;2.10;62.10;;;;;;936910;149;27390;-76
2023/03/02 05:36:12;;;;;;;11.57;8.03;;;2.10;62.20;;;;;;927373;149;27349;-76
2023/03/02 05:38:38;;;;;;;10.30;7.97;;;2.10;62.10;;;;;;940747;149;27335;-76
2023/03/02 05:41:05;;;;;;;9.43;7.50;;;2.10;62.40;;;;;;940133;149;27297;-77
2023/03/02 05:43:31;;;;;;;10.20;7.67;;;2.00;62.40;;;;;;938383;148;27358;-77
2023/03/02 05:45:59;;;;;;;9.23;7.37;;;2.00;62.50;;;;;;940923;148;27385;-76
2023/03/02 05:48:25;;;;;;;9.87;7.30;;;2.00;62.50;;;;;;939341;149;27373;-76
2023/03/02 05:50:51;;;;;;;8.70;7.50;;;2.00;62.50;;;;;;938687;149;27306;-76
2023/03/02 05:53:18;;;;;;;11.70;8.53;;;2.00;62.20;;;;;;939890;149;27313;-76
2023/03/02 05:55:44;;;;;;;12.97;7.50;;;2.00;62.30;;;;;;939961;149;27464;-77
2023/03/02 05:58:14;;;;;;;10.90;7.90;;;2.00;62.00;;;;;;941057;148;27361;-76
2023/03/02 06:00:40;;;;;;;8.67;7.37;;;2.00;62.20;;;;;;940210;149;27883;-76
2023/03/02 06:03:07;;;;;;;10.60;7.47;;;2.00;62.50;;;;;;940362;148;27604;-76
2023/03/02 06:05:33;;;;;;;10.93;7.77;;;2.00;62.20;;;;;;929216;149;27366;-77
2023/03/02 06:08:00;;;;;;;10.10;7.83;;;2.10;62.10;;;;;;929568;149;27357;-77
2023/03/02 06:10:27;;;;;;;13.97;8.10;;;2.10;62.10;;;;;;943103;147;27260;-77
2023/03/02 06:12:53;;;;;;;9.60;7.63;;;2.10;62.20;;;;;;939608;149;27305;-77
2023/03/02 06:15:20;;;;;;;9.07;7.50;;;2.10;62.20;;;;;;937716;149;27395;-76
2023/03/02 06:17:46;;;;;;;10.70;7.17;;;2.10;62.50;;;;;;940485;149;27834;-76
2023/03/02 06:20:13;;;;;;;8.23;7.43;;;2.10;62.60;;;;;;940996;149;27351;-76
2023/03/02 06:22:40;;;;;;;9.40;7.23;;;2.20;62.50;;;;;;940149;149;27304;-76
2023/03/02 06:25:06;;;;;;;9.50;8.00;;;2.20;62.80;;;;;;941312;148;27327;-77
2023/03/02 06:27:33;;;;;;;10.00;7.63;;;2.30;62.70;;;;;;940255;148;27434;-77
2023/03/02 06:29:59;;;;;;;14.37;8.23;;;2.30;62.70;;;;;;940462;149;27451;-76
2023/03/02 06:32:26;;;;;;;12.87;8.40;;;2.40;62.70;;;;;;933600;149;27378;-76
2023/03/02 06:34:52;;;;;;;8.47;6.67;;;2.40;62.70;;;;;;944669;147;27265;-76
2023/03/02 06:37:19;;;;;;;11.13;7.83;;;2.50;63.00;;;;;;939585;148;27398;-77
2023/03/02 06:39:46;;;;;;;15.67;8.03;;;2.70;63.50;;;;;;940079;149;27478;-77
2023/03/02 06:42:12;;;;;;;11.63;8.00;;;2.90;63.80;;;;;;939162;148;27409;-76
2023/03/02 06:44:39;;;;;;;10.33;7.47;;;3.10;64.00;;;;;;940991;149;27288;-77
2023/03/02 06:47:05;;;;;;;10.97;7.93;;;3.30;64.00;;;;;;937922;149;27288;-77
2023/03/02 06:49:32;;;;;;;12.93;8.00;;;3.60;64.10;;;;;;926829;153;27367;-77
2023/03/02 06:51:59;;;;;;;10.27;7.67;;;4.00;64.10;;;;;;942774;147;27278;-77
2023/03/02 06:54:25;;;;;;;11.37;7.10;;;4.30;63.80;;;;;;943166;147;27684;-77
2023/03/02 06:56:52;;;;;;;12.03;8.40;;;4.60;63.70;;;;;;940047;148;27306;-77
2023/03/02 06:59:18;;;;;;;10.47;8.13;;;5.10;63.60;;;;;;938755;149;27393;-78
2023/03/02 07:01:45;;;;;;;11.03;8.27;;;5.40;63.10;;;;;;937859;149;27368;-76
2023/03/02 07:04:12;;;;;;;9.97;8.53;;;5.80;62.90;;;;;;925036;150;27290;-76
2023/03/02 07:06:38;;;;;;;10.67;8.00;;;6.20;62.80;;;;;;945723;147;27789;-77
2023/03/02 07:09:05;;;;;;;10.47;8.07;;;6.60;62.50;;;;;;939799;149;27383;-77
2023/03/02 07:11:31;;;;;;;8.90;7.60;;;7.00;62.20;;;;;;941456;149;27438;-76
2023/03/02 07:14:00;;;;;;;9.93;7.43;;;7.40;61.80;;;;;;932930;149;27365;-75
2023/03/02 07:16:27;;;;;;;10.10;8.47;;;7.90;61.40;;;;;;942866;149;27444;-77
2023/03/02 07:18:53;;;;;;;9.63;7.63;;;8.30;61.10;;;;;;927031;147;27449;-78
2023/03/02 07:21:20;;;;;;;11.43;8.57;;;8.70;61.00;;;;;;926430;149;27468;-76
2023/03/02 07:23:47;;;;;;;11.53;7.97;;;9.20;59.70;;;;;;928350;151;27308;-77
2023/03/02 07:26:13;;;;;;;9.77;7.90;;;9.60;59.80;;;;;;944306;147;27286;-76
2023/03/02 07:28:40;;;;;;;12.43;8.43;;;10.00;59.40;;;;;;926780;149;27324;-77
2023/03/02 07:31:06;;;;;;;10.07;8.50;;;10.40;59.20;;;;;;939518;148;27374;-77
2023/03/02 07:33:33;;;;;;;11.60;9.53;;;10.90;59.00;;;;;;940212;149;27453;-77
2023/03/02 07:36:00;;;;;;;9.27;7.97;;;11.40;58.50;;;;;;939606;148;27311;-77
2023/03/02 07:38:26;;;;;;;9.67;8.60;;;11.80;58.00;;;;;;925605;150;27385;-77
2023/03/02 07:40:53;;;;;;;10.70;8.63;;;12.20;57.50;;;;;;942864;147;27261;-78
2023/03/02 07:43:19;;;;;;;10.23;7.77;;;12.60;57.60;;;;;;939864;149;27507;-77
2023/03/02 07:45:46;;;;;;;10.03;8.27;;;12.90;56.50;;;;;;940712;148;27381;-77
2023/03/02 07:48:12;;;;;;;10.80;8.30;;;13.30;56.10;;;;;;928195;149;27338;-77
2023/03/02 07:50:39;;;;;;;9.23;7.93;;;13.60;55.80;;;;;;940216;148;27648;-78
2023/03/02 07:53:06;;;;;;;8.83;7.92;;;13.90;55.50;;;;;;940305;149;27394;-77
2023/03/02 07:55:32;;;;;;;10.38;8.38;;;14.30;55.30;;;;;;938583;149;27358;-78
2023/03/02 07:57:59;;;;;;;9.78;8.10;;;14.70;54.90;;;;;;939708;149;27346;-78
2023/03/02 08:00:25;;;;;;;9.48;7.90;;;15.00;55.30;;;;;;929127;149;27791;-78
2023/03/02 08:02:52;;;;;;;9.05;7.78;;;15.30;54.20;;;;;;926915;150;27362;-79
2023/03/02 08:05:19;;;;;;;8.18;7.37;;;15.70;53.90;;;;;;927274;150;27360;-78
2023/03/02 08:07:45;;;;;;;9.15;7.70;;;16.10;53.40;;;;;;926488;151;27434;-78
2023/03/02 08:10:12;;;;;;;8.63;7.72;;;16.40;52.60;;;;;;943951;147;27311;-78
2023/03/02 08:12:38;;;;;;;9.03;7.72;;;16.70;52.20;;;;;;939681;151;27303;-78
2023/03/02 08:15:05;;;;;;;10.28;8.10;;;16.90;51.60;;;;;;940939;148;27362;-78
2023/03/02 08:17:32;;;;;;;7.83;7.10;;;17.10;51.40;;;;;;939981;149;27805;-77
2023/03/02 08:19:58;;;;;;;9.40;7.25;;;17.40;51.00;;;;;;940339;149;27420;-78
2023/03/02 08:22:25;;;;;;;9.20;7.70;;;17.60;50.70;;;;;;939410;149;27415;-78
2023/03/02 08:24:52;;;;;;;9.60;7.92;;;17.80;50.30;;;;;;938900;149;27310;-79
2023/03/02 08:27:18;;;;;;;9.33;7.50;;;18.00;49.90;;;;;;942560;149;27466;-78
2023/03/02 08:29:45;;;;;;;10.95;8.28;;;18.20;49.90;;;;;;938831;149;28778;-78
2023/03/02 08:32:11;;;;;;;10.63;7.35;;;18.30;49.60;;;;;;940016;149;27392;-78
2023/03/02 08:34:38;;;;;;;9.53;7.87;;;18.50;49.40;;;;;;939949;149;27367;-78
2023/03/02 08:37:05;;;;;;;8.83;7.92;;;18.70;49.00;;;;;;938732;149;27933;-79
2023/03/02 08:39:31;;;;;;;8.30;6.67;;;19.00;48.70;;;;;;928972;149;27379;-78
2023/03/02 08:41:58;;;;;;;10.15;7.08;;;19.10;48.10;;;;;;927669;150;27423;-78
2023/03/02 08:44:24;;;;;;;7.97;7.17;;;19.30;47.80;;;;;;942067;147;27300;-78
2023/03/02 08:46:51;;;;;;;8.58;7.58;;;19.40;47.60;;;;;;938440;149;27270;-79
2023/03/02 08:49:17;;;;;;;8.85;7.95;;;19.50;46.90;;;;;;939700;149;27464;-79
2023/03/02 08:51:44;;;;;;;8.25;7.37;;;19.60;46.00;;;;;;940949;149;28305;-79
2023/03/02 08:54:11;;;;;;;8.73;7.70;;;19.60;46.30;;;;;;928476;149;27300;-78
2023/03/02 08:56:38;;;;;;;7.87;7.08;;;19.70;46.40;;;;;;927871;154;27475;-79
2023/03/02 08:59:04;;;;;;;8.68;7.85;;;19.70;46.30;;;;;;939071;149;27419;-79
2023/03/02 09:01:30;;;;;;;9.93;7.85;;;19.80;46.00;;;;;;927247;150;27367;-79
2023/03/02 09:03:58;;;;;;;9.80;8.40;;;19.90;45.60;;;;;;941293;149;27304;-79
2023/03/02 09:06:24;;;;;;;8.28;7.42;;;20.00;45.50;;;;;;941937;148;27402;-79
2023/03/02 09:08:50;;;;;;;9.93;8.25;;;20.10;45.30;;;;;;951146;146;27418;-78
2023/03/02 09:11:17;;;;;;;8.78;7.97;;;20.10;44.30;;;;;;942034;148;27369;-78
2023/03/02 09:13:43;;;;;;;8.85;7.67;;;20.00;43.70;;;;;;943519;148;27378;-78
2023/03/02 09:16:10;;;;;;;8.78;7.90;;;20.00;44.00;;;;;;940874;148;27310;-79
2023/03/02 09:18:36;;;;;;;10.55;7.53;;;19.90;44.10;;;;;;925832;149;27330;-79
2023/03/02 09:21:03;;;;;;;7.58;6.87;;;19.80;44.30;;;;;;929438;149;27345;-78
2023/03/02 09:23:30;;;;;;;8.98;7.25;;;19.70;44.10;;;;;;931301;149;28331;-79
2023/03/02 09:25:56;;;;;;;8.40;7.25;;;19.70;44.30;;;;;;939943;148;27304;-79
2023/03/02 09:28:23;;;;;;;8.43;7.53;;;19.70;44.60;;;;;;941297;148;27442;-79
2023/03/02 09:30:52;;;;;;;8.08;6.78;;;19.70;44.80;;;;;;927858;149;27293;-79
2023/03/02 09:33:18;;;;;;;8.33;7.45;;;19.80;45.00;;;;;;937677;148;27604;-79
2023/03/02 09:35:46;;;;;;;8.15;7.05;;;19.90;44.70;;;;;;939832;148;27383;-79
2023/03/02 09:38:14;;;;;;;8.88;6.78;;;20.10;44.80;;;;;;939989;148;27296;-79
2023/03/02 09:40:38;;;;;;;7.25;6.53;;;20.20;44.80;;;;;;939750;148;27362;-79
2023/03/02 09:43:33;;;;;;;10.72;7.87;;;20.20;44.30;;;;;;938544;148;28430;-79
2023/03/02 09:46:11;;;;;;;8.70;7.22;;;20.30;44.20;;;;;;927422;149;27361;-78
2023/03/02 09:48:47;;;;;;;8.43;7.55;;;20.30;44.20;;;;;;939775;151;27295;-78
2023/03/02 09:51:32;;;;;;;7.92;7.12;;;20.30;44.00;;;;;;938275;149;27391;-78
2023/03/02 09:53:59;;;;;;;7.65;6.87;;;20.20;43.70;;;;;;938149;149;27325;-78
2023/03/02 09:56:25;;;;;;;7.70;6.78;;;20.10;43.30;;;;;;938012;149;27648;-78
2023/03/02 09:59:01;;;;;;;8.68;7.20;;;19.90;43.30;;;;;;941253;151;27402;-77
2023/03/02 10:01:39;;;;;;;7.30;6.55;;;19.70;43.30;;;;;;939366;149;27327;-77
2023/03/02 10:04:09;;;;;;;10.30;7.47;;;19.50;43.50;;;;;;938430;149;27315;-78
2023/03/02 10:06:35;;;;;;;8.08;7.28;;;19.30;43.40;;;;;;940731;149;27430;-78
2023/03/02 10:09:02;;;;;;;9.93;7.30;;;19.00;43.30;;;;;;941481;149;27350;-77
2023/03/02 10:11:47;;;;;;;8.43;7.20;;;18.80;43.30;;;;;;942822;149;27318;-77
2023/03/02 10:14:41;;;;;;;10.40;7.72;;;18.50;43.40;;;;;;937813;149;27267;-77
2023/03/02 10:17:22;;;;;;;7.65;6.83;;;18.30;43.60;;;;;;939709;149;27739;-78
2023/03/02 10:19:52;;;;;;;7.90;7.10;;;18.00;43.70;;;;;;941307;149;27289;-77
2023/03/02 10:22:21;;;;;;;8.35;7.12;;;17.80;43.80;;;;;;941640;147;27366;-78
2023/03/02 10:24:54;;;;;;;7.20;6.50;;;17.60;43.70;;;;;;939278;149;27328;-77
2023/03/02 10:27:24;;;;;;;7.58;6.83;;;17.40;43.60;;;;;;926461;151;27407;-78
2023/03/02 10:29:50;;;;;;;7.92;6.83;;;17.20;43.80;;;;;;939428;149;27405;-77
2023/03/02 10:32:16;;;;;;;19.15;10.65;;;16.90;43.90;;;;;;939917;149;27371;-77
2023/03/02 10:34:43;;;;;;;8.98;7.35;;;16.70;43.80;;;;;;945192;147;27768;-78
2023/03/02 10:37:12;;;;;;;7.80;7.10;;;16.50;44.00;;;;;;939175;149;27386;-78
2023/03/02 10:39:39;;;;;;;9.20;8.03;;;16.20;44.10;;;;;;940338;150;27447;-77
2023/03/02 10:42:05;;;;;;;9.60;8.03;;;16.10;44.40;;;;;;938850;149;27537;-77
2023/03/02 10:44:32;;;;;;;11.12;8.70;;;15.90;44.60;;;;;;939845;149;27331;-77
2023/03/02 10:46:58;;;;;;;10.10;7.80;;;15.70;44.80;;;;;;928855;149;27371;-77
2023/03/02 10:49:25;;;;;;;8.30;7.50;;;15.50;44.90;;;;;;940568;149;27378;-77
2023/03/02 10:51:55;;;;;;;8.13;7.33;;;15.40;45.10;;;;;;941145;149;27494;-77
2023/03/02 10:54:21;;;;;;;9.30;7.40;;;15.30;45.30;;;;;;941165;149;27289;-77
2023/03/02 10:56:48;;;;;;;10.82;8.28;;;15.20;45.50;;;;;;939762;149;27302;-77
2023/03/02 10:59:15;;;;;;;9.75;8.10;;;15.10;45.60;;;;;;939904;149;27829;-77
2023/03/02 11:01:41;;;;;;;8.67;7.77;;;15.10;46.00;;;;;;935543;149;27397;-77
2023/03/02 11:04:08;;;;;;;10.43;7.73;;;15.00;46.00;;;;;;940058;149;28535;-77
2023/03/02 11:06:35;;;;;;;8.60;7.33;;;15.00;46.10;;;;;;940200;149;27313;-77
2023/03/02 11:09:01;;;;;;;10.18;7.72;;;14.90;46.10;;;;;;938210;149;27318;-77
2023/03/02 11:11:28;;;;;;;11.47;8.57;;;14.80;46.30;;;;;;938049;149;27330;-77
2023/03/02 11:13:55;;;;;;;9.27;7.23;;;14.80;46.30;;;;;;939880;149;27361;-77
2023/03/02 11:16:24;;;;;;;8.87;7.87;;;14.80;46.40;;;;;;942097;149;27416;-77
2023/03/02 11:19:05;;;;;;;8.30;7.50;;;14.70;46.30;;;;;;940046;149;27426;-77
2023/03/02 11:21:34;;;;;;;11.85;8.00;;;14.70;46.50;;;;;;936948;149;27372;-78
2023/03/02 11:24:17;;;;;;;9.10;7.83;;;14.60;46.60;;;;;;940143;149;28102;-77
2023/03/02 11:26:52;;;;;;;13.23;8.97;;;14.60;46.80;;;;;;915673;154;27312;-78
2023/03/02 11:29:30;;;;;;;12.30;7.80;;;14.50;46.80;;;;;;933356;148;27295;-77
2023/03/02 11:32:18;;;;;;;8.30;7.37;;;14.60;47.00;;;;;;936373;152;27420;-77
2023/03/02 11:34:54;;;;;;;11.60;7.20;;;14.50;47.00;;;;;;934293;152;27710;-78
2023/03/02 11:37:26;;;;;;;9.67;7.83;;;14.50;47.30;;;;;;933638;152;27457;-77
2023/03/02 11:40:14;;;;;;;8.97;8.00;;;14.50;47.30;;;;;;935056;152;27328;-77
2023/03/02 11:42:40;;;;;;;7.63;6.83;;;14.50;47.40;;;;;;934223;150;27427;-78
2023/03/02 11:45:13;;;;;;;8.23;7.23;;;14.50;47.50;;;;;;934565;151;27462;-78
2023/03/02 11:47:42;;;;;;;7.97;7.17;;;14.50;47.60;;;;;;934353;151;27480;-77
2023/03/02 11:50:08;;;;;;;7.50;6.20;;;14.50;47.60;;;;;;931943;152;27391;-77
2023/03/02 11:52:35;;;;;;;7.70;6.90;;;14.50;47.60;;;;;;928483;151;27451;-79
2023/03/02 11:55:13;;;;;;;8.20;6.62;;;14.50;47.60;;;;;;926397;151;27357;-77
2023/03/02 11:57:42;;;;;;;9.45;6.45;;;14.60;47.80;;;;;;933587;151;27286;-79
2023/03/02 12:00:13;;;;;;;7.37;6.13;;;14.60;47.70;;;;;;932126;153;27344;-78
2023/03/02 12:02:39;;;;;;;8.95;6.50;;;14.60;47.60;;;;;;930971;153;27293;-78
2023/03/02 12:05:06;;;;;;;8.93;6.50;;;14.60;47.60;;;;;;934093;153;27467;-79
2023/03/02 12:07:32;;;;;;;8.25;7.33;;;14.60;47.60;;;;;;931266;150;27387;-79
2023/03/02 12:10:05;;;;;;;7.50;6.12;;;14.60;47.60;;;;;;932535;151;27384;-79
2023/03/02 12:12:40;;;;;;;9.83;6.42;;;14.60;47.60;;;;;;934443;153;27325;-77
2023/03/02 12:15:25;;;;;;;8.60;6.25;;;14.60;47.60;;;;;;930731;153;27469;-77
2023/03/02 12:17:52;;;;;;;9.80;6.35;;;14.60;47.60;;;;;;932809;153;27398;-78
2023/03/02 12:20:22;;;;;;;8.23;6.27;;;14.60;47.70;;;;;;934055;153;27330;-78
2023/03/02 12:22:48;;;;;;;7.30;5.85;;;14.60;47.70;;;;;;932063;151;27358;-77
2023/03/02 12:25:20;;;;;;;7.90;5.72;;;14.60;47.80;;;;;;932413;151;27266;-77
2023/03/02 12:27:47;;;;;;;9.73;6.37;;;14.60;47.80;;;;;;933215;153;27394;-77
2023/03/02 12:30:22;;;;;;;8.85;6.78;;;14.60;47.80;;;;;;935482;150;27769;-77
2023/03/02 12:32:47;;;;;;;7.30;6.20;;;14.70;47.90;;;;;;940182;149;27766;-77
2023/03/02 12:35:12;;;;;;;8.50;6.50;;;14.60;47.70;;;;;;938662;148;27369;-77
2023/03/02 12:38:00;;;;;;;9.43;6.13;;;14.70;47.80;;;;;;936712;149;27360;-77
2023/03/02 12:40:57;;;;;;;6.25;5.65;;;14.60;47.70;;;;;;940905;148;27325;-77
2023/03/02 12:43:32;;;;;;;6.83;5.30;;;14.60;47.80;;;;;;940109;148;27322;-78
2023/03/02 12:46:25;;;;;;;7.72;5.90;;;14.60;47.90;;;;;;938533;149;27313;-77
2023/03/02 12:48:56;;;;;;;11.35;6.40;;;14.60;47.90;;;;;;941328;149;27343;-78
2023/03/02 12:51:22;;;;;;;8.20;6.20;;;14.60;48.10;;;;;;939044;149;27360;-77
2023/03/02 12:53:49;;;;;;;6.30;5.70;;;14.60;48.10;;;;;;937504;149;27428;-77